Time;durP1;ratioP1;P1;durP2;ratioP2;P2;SDS_P1;SDS_P2;PMS_P1;PMS_P2;Temp;Humidity;BMP_temperature;BMP_pressure;BME280_temperature;BME280_humidity;BME280_pressure;Samples;Min_cycle;Max_cycle;Signal;HPM_P1;HPM_P2
2022/08/04 00:05:58;;;;;;;6.40;5.20;;;;;;;20.35;53.81;100279.09;30024636;29;98385;-60
2022/08/04 00:21:03;;;;;;;7.53;5.90;;;;;;;20.36;54.43;100279.94;30023888;29;97077;-59
2022/08/04 00:36:05;;;;;;;12.27;6.03;;;;;;;20.34;54.67;100282.88;30018607;29;97155;-58
2022/08/04 00:51:24;;;;;;;8.80;6.27;;;;;;;19.88;55.51;100287.09;30018857;29;96988;-59
2022/08/04 01:06:31;;;;;;;7.37;6.03;;;;;;;19.48;56.60;100282.16;30019457;29;96946;-59
2022/08/04 01:21:44;;;;;;;8.37;6.90;;;;;;;19.16;57.67;100293.97;30038238;29;97137;-59
2022/08/04 01:36:56;;;;;;;8.17;6.90;;;;;;;18.86;58.35;100297.38;30037142;29;96834;-59
2022/08/04 01:51:57;;;;;;;7.90;7.03;;;;;;;18.57;58.99;100286.19;30037138;29;96936;-59
2022/08/04 02:07:39;;;;;;;8.30;6.77;;;;;;;18.35;59.89;100287.63;30035562;29;96776;-60
2022/08/04 02:22:50;;;;;;;12.37;8.23;;;;;;;18.14;60.47;100280.72;30034229;29;96771;-60
2022/08/04 02:38:03;;;;;;;10.37;8.00;;;;;;;17.98;61.27;100265.91;30031752;29;97409;-58
2022/08/04 02:53:04;;;;;;;20.47;9.07;;;;;;;17.79;61.85;100263.09;30031312;29;96801;-63
2022/08/04 03:08:36;;;;;;;10.77;8.53;;;;;;;17.66;62.53;100258.59;30029109;29;97124;-60
2022/08/04 03:23:43;;;;;;;13.70;7.93;;;;;;;17.62;63.02;100270.00;30026039;29;97032;-59
2022/08/04 03:38:49;;;;;;;10.67;8.13;;;;;;;17.62;63.35;100278.09;30025525;29;97553;-58
2022/08/04 03:54:04;;;;;;;12.97;9.00;;;;;;;17.66;63.71;100285.53;30024915;29;97433;-58
2022/08/04 04:09:25;;;;;;;13.47;8.90;;;;;;;17.79;63.83;100273.84;30023685;29;97124;-61
2022/08/04 04:24:38;;;;;;;12.47;9.60;;;;;;;18.07;63.79;100272.66;30020023;29;97790;-61
2022/08/04 04:40:10;;;;;;;14.33;9.80;;;;;;;18.37;63.54;100274.75;30019866;29;96722;-60
2022/08/04 04:55:16;;;;;;;12.27;8.57;;;;;;;18.71;63.14;100291.47;30005576;29;96840;-60
2022/08/04 05:10:54;;;;;;;10.97;9.30;;;;;;;19.11;62.55;100299.22;30010274;29;98617;-60
2022/08/04 05:26:09;;;;;;;11.63;9.00;;;;;;;19.69;61.78;100295.19;30017079;29;96757;-59
2022/08/04 05:41:10;;;;;;;11.10;8.83;;;;;;;20.35;60.85;100289.09;30015325;29;96863;-59
2022/08/04 05:56:13;;;;;;;12.90;8.13;;;;;;;21.12;59.88;100288.22;30013431;29;97241;-61
2022/08/04 06:11:15;;;;;;;11.53;7.30;;;;;;;21.97;58.09;100289.34;30023455;29;96721;-59
2022/08/04 06:26:18;;;;;;;9.47;7.10;;;;;;;22.93;56.52;100301.25;30032414;29;96781;-59
2022/08/04 06:41:21;;;;;;;11.07;6.70;;;;;;;23.95;54.20;100311.78;30029783;29;98550;-61
2022/08/04 06:56:24;;;;;;;9.10;6.00;;;;;;;24.74;51.56;100308.66;30020433;29;97867;-61
2022/08/04 07:11:24;;;;;;;10.23;6.20;;;;;;;25.50;48.90;100304.75;30027063;29;96777;-59
2022/08/04 07:26:28;;;;;;;7.03;5.80;;;;;;;26.50;47.15;100303.56;30024900;29;97406;-60
2022/08/04 07:41:29;;;;;;;8.40;5.50;;;;;;;27.11;43.62;100301.84;30021148;29;97562;-61
2022/08/04 07:56:31;;;;;;;13.63;5.57;;;;;;;27.66;41.70;100303.81;30021492;29;96781;-60
2022/08/04 08:11:31;;;;;;;6.27;5.07;;;;;;;28.43;39.58;100302.50;30021742;29;96882;-61
2022/08/04 08:26:32;;;;;;;6.78;5.35;;;;;;;28.84;37.55;100302.13;30021017;29;96685;-60
2022/08/04 08:41:50;;;;;;;7.57;5.80;;;;;;;29.27;36.17;100299.47;30018727;29;96814;-60
2022/08/04 08:57:11;;;;;;;6.73;5.30;;;;;;;30.34;34.71;100288.06;30020361;29;97587;-59
2022/08/04 09:12:27;;;;;;;5.77;5.27;;;;;;;30.74;33.75;100284.09;30019064;29;96847;-59
2022/08/04 09:27:38;;;;;;;10.83;4.93;;;;;;;31.64;30.97;100275.44;30018397;29;97395;-60
2022/08/04 09:42:50;;;;;;;10.17;5.43;;;;;;;32.26;30.07;100282.25;30030603;29;97135;-60
2022/08/04 09:57:54;;;;;;;10.20;5.03;;;;;;;32.60;29.67;100267.84;30026831;29;97246;-60
2022/08/04 10:12:54;;;;;;;6.63;4.20;;;;;;;33.27;27.98;100259.69;30029404;29;98143;-59
2022/08/04 10:27:59;;;;;;;6.63;4.20;;;;;;;33.98;26.89;100248.38;30025464;29;97657;-59
2022/08/04 10:43:04;;;;;;;8.17;3.47;;;;;;;34.50;24.73;100249.41;30020190;28;98123;-61
2022/08/04 10:58:08;;;;;;;3.70;2.97;;;;;;;34.86;24.66;100228.78;30020014;29;97130;-62
2022/08/04 11:13:13;;;;;;;5.73;3.33;;;;;;;34.98;24.19;100220.59;30026645;29;97541;-61
2022/08/04 11:28:23;;;;;;;5.57;3.50;;;;;;;35.46;23.52;100218.47;30025123;29;97481;-61
2022/08/04 11:43:57;;;;;;;4.83;2.93;;;;;;;36.13;22.47;100213.00;30019975;29;98275;-60
2022/08/04 11:58:58;;;;;;;4.93;3.63;;;;;;;36.46;22.17;100208.53;30020768;29;97583;-61
2022/08/04 12:14:08;;;;;;;9.00;3.47;;;;;;;36.51;21.89;100200.00;30021129;29;97946;-61
2022/08/04 12:29:13;;;;;;;4.57;3.30;;;;;;;35.71;23.07;100188.91;30012209;29;97199;-60
2022/08/04 12:44:14;;;;;;;5.87;3.70;;;;;;;36.01;22.65;100193.56;30007607;29;97319;-61
2022/08/04 12:59:14;;;;;;;6.20;3.58;;;;;;;35.10;23.69;100167.25;30007214;29;97688;-60
2022/08/04 13:14:16;;;;;;;4.80;3.30;;;;;;;35.53;22.57;100151.47;30026702;29;96972;-59
2022/08/04 13:29:18;;;;;;;4.97;3.60;;;;;;;34.85;22.72;100130.31;30019419;29;97584;-59
2022/08/04 13:44:33;;;;;;;4.73;3.83;;;;;;;34.92;22.82;100130.59;30024200;29;97062;-61
2022/08/04 13:59:36;;;;;;;4.10;3.70;;;;;;;34.22;23.15;100131.72;30023899;29;97164;-61
2022/08/04 14:14:47;;;;;;;9.43;4.03;;;;;;;33.43;24.11;100110.97;30023653;29;97262;-59
2022/08/04 14:29:48;;;;;;;5.77;3.57;;;;;;;33.44;23.94;100105.13;30020779;29;97540;-61
2022/08/04 14:44:56;;;;;;;6.90;3.95;;;;;;;33.01;24.62;100095.69;30020123;29;98718;-60
2022/08/04 14:59:56;;;;;;;5.90;4.60;;;;;;;32.97;24.66;100083.69;30020610;29;97378;-60
2022/08/04 15:14:57;;;;;;;7.43;5.03;;;;;;;32.89;26.06;100073.47;30044725;29;97256;-60
2022/08/04 15:30:03;;;;;;;6.28;4.68;;;;;;;32.61;26.80;100062.66;30017233;29;96718;-59
2022/08/04 15:45:18;;;;;;;5.40;4.50;;;;;;;32.11;28.05;100049.22;30012255;29;97325;-59
2022/08/04 16:00:18;;;;;;;6.63;4.73;;;;;;;31.97;28.44;100041.88;30016346;29;97806;-60
2022/08/04 16:15:38;;;;;;;5.53;4.85;;;;;;;31.91;29.02;100034.09;30020588;29;96912;-61
2022/08/04 16:30:39;;;;;;;6.17;5.00;;;;;;;31.50;29.43;100033.22;30017423;29;97100;-61
2022/08/04 16:45:41;;;;;;;6.50;4.90;;;;;;;31.28;30.00;100029.34;30015058;29;96865;-63
2022/08/04 17:00:42;;;;;;;12.37;5.07;;;;;;;31.00;30.40;100023.94;30014698;29;96738;-61
2022/08/04 17:15:47;;;;;;;8.18;5.25;;;;;;;30.71;31.32;100036.19;30014456;29;97103;-61
2022/08/04 17:30:49;;;;;;;6.43;5.70;;;;;;;30.48;32.20;100028.97;30013584;29;96737;-59
2022/08/04 17:46:22;;;;;;;5.70;5.13;;;;;;;30.07;32.75;100024.31;30014906;29;98678;-60
2022/08/04 18:01:22;;;;;;;8.73;5.43;;;;;;;29.63;33.35;100027.28;30034659;29;96722;-62
2022/08/04 18:16:23;;;;;;;6.60;5.00;;;;;;;29.17;34.18;100030.78;30031405;29;103929;-59
2022/08/04 18:31:23;;;;;;;5.90;4.93;;;;;;;28.72;35.43;100035.84;30031414;29;115321;-59
2022/08/04 18:46:24;;;;;;;8.60;5.32;;;;;;;28.20;36.55;100034.56;30029899;29;97313;-62
2022/08/04 19:01:24;;;;;;;7.03;5.32;;;;;;;27.79;37.13;100045.94;30028049;29;97608;-59
2022/08/04 19:16:26;;;;;;;8.82;6.22;;;;;;;27.41;38.21;100064.09;30023714;29;96980;-63
2022/08/04 19:31:27;;;;;;;8.57;6.37;;;;;;;26.97;38.89;100066.53;30021707;29;97249;-61
2022/08/04 19:46:27;;;;;;;10.07;5.90;;;;;;;26.27;40.32;100064.66;30024746;29;97084;-63
2022/08/04 20:01:28;;;;;;;8.40;5.95;;;;;;;25.80;41.56;100060.38;30024425;29;96867;-60
2022/08/04 20:16:29;;;;;;;7.32;5.75;;;;;;;25.54;42.23;100068.56;30021127;29;97400;-60
2022/08/04 20:31:29;;;;;;;7.13;5.20;;;;;;;25.48;42.52;100072.41;30020494;29;96873;-60
2022/08/04 20:46:29;;;;;;;8.48;5.93;;;;;;;25.10;43.16;100071.78;30019743;29;112672;-62
2022/08/04 21:01:30;;;;;;;7.25;5.70;;;;;;;24.66;44.08;100073.84;30014598;29;96986;-62
2022/08/04 21:16:30;;;;;;;10.27;6.50;;;;;;;24.59;44.77;100081.44;30017268;29;96851;-61
2022/08/04 21:31:30;;;;;;;9.98;6.03;;;;;;;24.53;45.01;100082.47;30026435;29;110187;-62
2022/08/04 21:46:31;;;;;;;14.07;5.90;;;;;;;24.16;45.46;100077.94;30033080;29;100330;-63
2022/08/04 22:01:31;;;;;;;7.30;5.50;;;;;;;23.71;46.17;100071.91;30036600;29;96618;-61
2022/08/04 22:16:32;;;;;;;;;;;;;;;23.42;47.21;100082.28;30036062;29;97444;-61
2022/08/04 22:31:32;;;;;;;9.27;5.73;;;;;;;23.31;47.62;100074.03;30035336;29;96715;-59
2022/08/04 22:46:32;;;;;;;6.65;5.55;;;;;;;23.05;48.35;100072.13;30028237;29;97642;-62
2022/08/04 23:01:36;;;;;;;6.60;5.82;;;;;;;22.67;49.33;100063.03;30030674;29;97010;-62
2022/08/04 23:16:37;;;;;;;9.37;5.87;;;;;;;22.44;50.54;100060.31;30030159;29;96734;-62
2022/08/04 23:31:37;;;;;;;10.63;5.97;;;;;;;22.30;51.02;100064.44;30029181;29;96786;-62
2022/08/04 23:46:37;;;;;;;6.20;5.20;;;;;;;22.33;51.10;100053.06;30025930;29;97087;-62
